Amunt
Inicio > meteoXarxa
Fes-te'n soci

METEOXARXA

Benicarló
Ubicació la Cervellona
Comarca el Baix Maestrat
Altitud (msnm)
Posició geogràfica 40° 24' 6.12" N, 00° 24' 51.84" E
Model
Presa de dades
Font de les dades IVIA
Estadístiques. Resum
Data Temperatura (ºC) Humitat (%) Pressió (hPa) Vent (km/h) Precipit. (mm)
Mínima Mitjana Màxima Mínima Mitjana Màxima Mínima Mitjana Màxima Predom. Mitjana Ràfega màxima Total Dies de pluja
Mínima Mitjana Màxima Mínima Mitjana Màxima
Últimes dades diàries
20-02-2017 4,7     10,4     18,3 70,7 SW 2,4 15,9 0,2  
19-02-2017 5,8     10,6     16,6 81,6 NE 2,2 13,3 0,0  
18-02-2017 4,0     9,6     16,5 83,8 SE 2,1 13,6 0,2  
17-02-2017 4,6     10,0     15,6 88,1 S 2,2 15,0 0,2  
16-02-2017 7,2     12,0     16,6 89,4 E 1,2 10,5 0,0  
15-02-2017 7,2     11,7     17,1 86,6 NE 1,4 12,7 0,2  
14-02-2017 4,8     9,7     15,6 89,7 SE 1,4 11,4 0,2  
13-02-2017 8,5     12,8     16,2 90,7 NE 6,4 27,4 7,5  
12-02-2017 11,7     13,1     16,1 89,0 NE 8,6 22,8 0,0  
11-02-2017 6,8     10,7     13,6 86,2 NE 6,3 20,5 0,0  
10-02-2017 3,6     8,2     14,5 76,3 SE 1,5 13,7 0,0  
09-02-2017 4,7     9,6     15,5 52,8 NW 6,5 32,6 0,0  
08-02-2017 9,2     11,1     14,2 43,1 NW 16,8 42,0 0,0  
07-02-2017 11,4     16,5     22,1 52,9 NW 4,0 26,0 0,0  
06-02-2017 10,3     15,1     18,6 43,3 NW 10,4 39,1 0,0  
05-02-2017 10,6     13,4     16,8 74,4 NW 8,8 37,3 0,0  
04-02-2017 9,1     13,9     20,4 75,5 SW 2,7 15,6 0,0  
03-02-2017 6,0     11,8     20,0 74,7 SW 2,6 26,6 0,0  
02-02-2017 5,5     8,7     12,5 96,1 NW 1,1 16,2 2,8  
01-02-2017 7,5     9,9     14,9 97,2 SW 1,8 13,0 0,0  
29-01-2017 1,1     8,2     15,4 76,0 S 1,5 15,3 0,0  
28-01-2017 2,9     9,9     16,1 84,8 N 5,9 26,3 3,6  
27-01-2017 6,2     12,1     N 2,5 20,5 23,6  
26-01-2017 3,1     7,3     12,5 81,0 N 1,3 9,8 0,0  
25-01-2017 -0,2     6,4     12,8 61,1 N 1,9 11,6 0,0  
24-01-2017 2,1     9,3     15,5 56,8 NW 3,1 22,6 0,0  
23-01-2017 6,0     9,1     12,4 68,9 N 5,6 20,9 2,4  
22-01-2017 7,9     9,0     11,1 69,8 N 8,1 26,4 1,6  
21-01-2017 6,5     9,3     11,0 73,3 N 10,4 30,7 8,9  
20-01-2017 7,6     8,8     10,0 92,4 NE 11,0 29,6 59,6  
19-01-2017 2,3     5,0     9,3 67,5 N 12,4 35,3 24,2  
18-01-2017 -0,8     3,7     9,8 37,4 N 5,2 23,5 0,0  
Dades del mes en curs (actualitzades fins l'últim dia disponible)
02/2017 3,6 7,2 11,7 11,4 12,5 16,6 22,1 77,1   4,5 42,0 11,3  
Últimes dades mensuals
01/2017 -0,8 3,5 8,4 14,1 25,5 18,2 68,7 100,0 N 5,3 38,7 124,2
12/2016 0,5 6,3 14,1 10,2 10,8 16,0 19,4 53,4 81,0 93,5 4,3 30,4 85,6 15
11/2016 3,8 8,7 13,7 13,5 13,3 19,0 26,4 42,5 72,7 91,8 3,3 31,9 87,5 11
10/2016 9,8 14,4 17,4 18,6 18,3 24,0 28,1 61,9 79,6 92,5 2,2 20,4 55,9 17
09/2016 12,4 17,5 22,7 28,7 33,8 25,6 68,7 97,3 SE 3,5 86,5 24,6
08/2016 14,9 19,5 24,9 30,3 32,8 27,7 68,2 95,2 SE 3,6 26,8 4,0
07/2016 14,9 19,0 25,1 30,3 33,9 22,4 63,9 97,1 SE 3,8 26,2 0,8
06/2016 11,1 15,8 19,7 21,8 24,2 27,5 32,6 39,5 66,0 83,3 4,3 27,0 5,4 6
05/2016 7,3 11,6 17,1 22,2 27,5 18,4 70,7 98,5 S 4,4 34,2 36,8
04/2016 6,3 9,4 14,6 19,6 24,2 24,1 69,1 98,0 NO 5,3 33,0 56,6
03/2016 0,4 6,9 12,2 17,6 24,0 20,9 62,5 98,6 NO 5,6 39,5 88,3
02/2016 0,3 5,8 11,5 17,7 25,9 22,9 61,5 96,7 NO 5,1 41,6 15,4
01/2016 1,9 6,1 11,3 17,0 24,8 22,7 69,2 97,7 NO 3,9 41,4 3,8
Dades de l'any en curs (actualitzades fins l'últim dia disponible)
2017 -0,8 5,0 11,7 9,7 9,3 14,9 22,1 72,2   4,9 42,0 135,4  
Últimes dades anuals
2006 425,2
2007 599,0
2008 520,0
2009 -2,0 15,2 23,6 20,0 6,0 24,9 42,3 38,0 67,7 92,0 4,7 47,0 391,2 41
2010 -1,0 11,5 23,6 16,3 5,2 21,1 35,2 32,0 66,9 95,0 4,9 56,0 512,0 97
2011 612,9
2012 433,1
2014 -1,6 12,8 17,6 22,6 33,6 15,1 68,2 97,4 O 4,8 51,5 441,5
2015 -2,0 12,0 17,0 22,5 33,9 13,1 70,1 98,3 O 4,7 47,6 563,8